Time;durP1;ratioP1;P1;durP2;ratioP2;P2;SDS_P1;SDS_P2;PMS_P1;PMS_P2;Temp;Humidity;BMP_temperature;BMP_pressure;BME280_temperature;BME280_humidity;BME280_pressure;Samples;Min_cycle;Max_cycle;Signal;HPM_P1;HPM_P2
2022/12/11 00:01:18;;;;;;;13.50;5.30;;;;;;;11.08;88.52;98683.66;24558;1332;3028531;-69
2022/12/11 00:03:47;;;;;;;16.10;6.10;;;;;;;11.51;86.14;98679.05;24614;1323;3027178;-68
2022/12/11 00:06:20;;;;;;;19.20;7.80;;;;;;;11.43;85.85;98678.78;24485;1321;3027882;-68
2022/12/11 00:08:52;;;;;;;15.40;7.60;;;;;;;11.31;86.20;98683.52;24560;1326;3052353;-67
2022/12/11 00:11:22;;;;;;;21.10;7.60;;;;;;;10.98;87.82;98691.10;24566;1332;3028413;-68
2022/12/11 00:13:51;;;;;;;21.60;8.10;;;;;;;10.87;88.95;98693.46;24595;1333;3027391;-65
2022/12/11 00:16:20;;;;;;;8.30;4.40;;;;;;;10.67;90.17;98696.88;24550;1339;3053827;-68
2022/12/11 00:18:49;;;;;;;16.30;5.40;;;;;;;11.05;89.03;98696.89;24463;1331;3025577;-67
2022/12/11 00:21:18;;;;;;;18.20;5.60;;;;;;;11.42;87.10;98682.20;24581;1333;3052008;-69
2022/12/11 00:23:46;;;;;;;17.70;7.30;;;;;;;11.42;86.44;98692.18;24565;1333;3026242;-64
2022/12/11 00:26:15;;;;;;;19.10;7.40;;;;;;;11.33;86.75;98687.96;24579;1326;3056046;-67
2022/12/11 00:28:45;;;;;;;20.50;7.20;;;;;;;11.04;87.78;98692.91;24589;1330;3026318;-66
2022/12/11 00:31:16;;;;;;;19.80;7.50;;;;;;;10.80;88.89;98689.78;24625;1326;3049721;-67
2022/12/11 00:33:47;;;;;;;17.30;5.60;;;;;;;10.55;90.69;98694.09;24519;1333;3027054;-69
2022/12/11 00:36:19;;;;;;;10.60;4.80;;;;;;;10.91;89.76;98686.52;24546;1326;3026816;-68
2022/12/11 00:38:48;;;;;;;14.60;6.80;;;;;;;11.35;87.42;98672.69;24588;1325;3026608;-67
2022/12/11 00:41:17;;;;;;;18.30;7.00;;;;;;;11.06;87.56;98683.12;24532;1332;3026427;-65
2022/12/11 00:43:46;;;;;;;14.60;6.90;;;;;;;10.92;89.16;98680.50;24572;1326;3052349;-68
2022/12/11 00:46:16;;;;;;;13.70;7.00;;;;;;;10.68;89.73;98682.59;24554;1326;3028943;-66
2022/12/11 00:48:45;;;;;;;18.80;6.60;;;;;;;10.53;90.86;98677.94;24523;1326;3028219;-70
2022/12/11 00:51:14;;;;;;;10.40;5.20;;;;;;;10.38;91.86;98677.80;24508;1336;3052479;-70
2022/12/11 00:53:43;;;;;;;13.20;5.00;;;;;;;10.70;91.29;98671.06;24544;1336;3028919;-66
2022/12/11 00:56:14;;;;;;;10.20;5.70;;;;;;;11.14;88.96;98659.27;24557;1328;3028560;-70
2022/12/11 00:58:44;;;;;;;14.90;6.50;;;;;;;11.05;88.51;98658.67;24544;1332;3051874;-67
2022/12/11 01:01:18;;;;;;;18.40;7.10;;;;;;;10.96;89.92;98657.63;24528;1333;3030114;-65
2022/12/11 01:03:48;;;;;;;13.50;6.60;;;;;;;10.59;91.01;98660.84;24587;1324;3052529;-69
2022/12/11 01:06:18;;;;;;;10.70;4.70;;;;;;;10.34;92.10;98655.66;24567;1336;3025803;-67
2022/12/11 01:08:47;;;;;;;12.30;5.40;;;;;;;10.70;91.60;98652.54;24551;1333;3026222;-66
2022/12/11 01:11:16;;;;;;;11.60;5.80;;;;;;;11.10;89.54;98640.80;24577;1331;3026422;-67
2022/12/11 01:13:46;;;;;;;14.10;6.40;;;;;;;11.18;88.37;98637.00;24556;1339;3052465;-70
2022/12/11 01:16:15;;;;;;;14.40;8.60;;;;;;;10.94;89.18;98632.17;24572;1326;3028147;-68
2022/12/11 01:18:45;;;;;;;18.60;8.00;;;;;;;10.56;90.42;98640.91;24484;1334;3049730;-69
2022/12/11 01:21:14;;;;;;;13.80;6.20;;;;;;;10.39;91.76;98639.36;24507;1333;3026444;-65
2022/12/11 01:23:43;;;;;;;10.50;5.90;;;;;;;10.91;90.62;98632.77;24576;1322;3028247;-65
2022/12/11 01:26:13;;;;;;;12.30;7.20;;;;;;;11.30;87.85;98621.05;24554;1332;3051617;-68
2022/12/11 01:28:42;;;;;;;14.50;9.10;;;;;;;10.97;88.26;98623.70;24583;1331;3026810;-66
2022/12/11 01:31:12;;;;;;;14.90;9.20;;;;;;;10.87;89.13;98632.86;24539;1322;3028389;-65
2022/12/11 01:33:41;;;;;;;15.40;9.50;;;;;;;10.68;89.81;98637.27;24567;1326;3053454;-67
2022/12/11 01:36:12;;;;;;;9.70;5.60;;;;;;;10.52;91.06;98642.27;24603;1333;3025760;-66
2022/12/11 01:38:41;;;;;;;10.40;5.60;;;;;;;10.63;90.91;98638.68;24632;1333;3053242;-69
2022/12/11 01:41:10;;;;;;;10.70;6.60;;;;;;;10.97;90.00;98631.23;24514;1326;3028675;-69
2022/12/11 01:43:59;;;;;;;12.40;7.20;;;;;;;10.99;89.51;98634.43;24533;1325;3052866;-66
2022/12/11 01:46:28;;;;;;;9.50;6.00;;;;;;;10.90;89.70;98628.80;24547;1338;3053498;-66
2022/12/11 01:48:57;;;;;;;13.30;6.70;;;;;;;10.71;89.99;98633.52;24590;1325;3028575;-66
2022/12/11 01:51:28;;;;;;;6.00;3.80;;;;;;;10.52;91.45;98640.71;24541;1332;3052753;-67
2022/12/11 01:54:06;;;;;;;7.30;4.80;;;;;;;10.74;91.35;98638.70;24592;1333;3024794;-69
2022/12/11 01:56:35;;;;;;;12.50;6.20;;;;;;;11.04;89.78;98639.17;24557;1326;3051438;-66
2022/12/11 01:59:06;;;;;;;13.00;8.00;;;;;;;10.95;89.89;98636.51;24543;1318;3026283;-68
2022/12/11 02:01:36;;;;;;;14.90;8.30;;;;;;;10.66;91.07;98641.94;24528;1326;3053310;-66
2022/12/11 02:04:06;;;;;;;15.80;8.50;;;;;;;10.51;92.05;98636.73;24515;1339;3028944;-69
2022/12/11 02:06:40;;;;;;;13.00;6.10;;;;;;;10.49;93.01;98628.31;24597;1339;3026639;-69
2022/12/11 02:09:14;;;;;;;9.00;5.90;;;;;;;10.79;91.95;98626.63;24528;1326;3049571;-67
2022/12/11 02:11:52;;;;;;;13.30;7.60;;;;;;;11.14;90.22;98619.29;24472;1332;3026545;-68
2022/12/11 02:14:43;;;;;;;15.90;9.60;;;;;;;11.15;89.57;98618.33;24575;1326;3050486;-66
2022/12/11 02:17:21;;;;;;;17.40;10.10;;;;;;;10.96;90.73;98627.64;24530;1330;3056131;-68
2022/12/11 02:20:05;;;;;;;17.50;11.10;;;;;;;10.60;91.99;98632.97;24526;1316;3053589;-65
2022/12/11 02:22:54;;;;;;;13.00;6.80;;;;;;;10.40;96.91;98633.03;24534;1333;3053020;-71
2022/12/11 02:25:51;;;;;;;10.70;6.50;;;;;;;11.15;92.01;98612.88;24502;1332;3050713;-64
2022/12/11 02:28:39;;;;;;;20.10;9.40;;;;;;;11.29;89.51;98614.62;24515;1333;3053107;-68
2022/12/11 02:31:13;;;;;;;17.20;9.80;;;;;;;10.93;90.92;98622.59;24512;1333;3049351;-66
2022/12/11 02:34:02;;;;;;;16.10;9.10;;;;;;;10.80;92.11;98628.85;24544;1333;3068022;-67
2022/12/11 02:36:34;;;;;;;13.40;7.30;;;;;;;10.50;93.44;98628.58;24598;1333;3052458;-68
2022/12/11 02:39:03;;;;;;;9.40;5.10;;;;;;;10.38;94.75;98632.80;24669;1326;3025983;-69
2022/12/11 02:41:32;;;;;;;12.10;5.40;;;;;;;10.59;94.59;98634.77;24510;1326;3028777;-66
2022/12/11 02:44:02;;;;;;;14.00;6.30;;;;;;;10.98;92.95;98622.96;24557;1326;3049309;-70
2022/12/11 02:46:31;;;;;;;14.20;7.30;;;;;;;10.87;92.50;98633.04;24546;1332;3029137;-69
2022/12/11 02:49:00;;;;;;;17.40;8.30;;;;;;;10.88;91.78;98624.71;24468;1324;3025759;-65
2022/12/11 02:51:31;;;;;;;16.60;7.40;;;;;;;10.79;92.51;98633.29;24448;1339;3048809;-67
2022/12/11 02:54:00;;;;;;;11.30;4.40;;;;;;;10.65;92.35;98629.77;24506;1333;3026481;-66
2022/12/11 02:56:35;;;;;;;11.90;5.70;;;;;;;11.02;91.19;98628.05;24535;1333;3026835;-69
2022/12/11 02:59:11;;;;;;;10.40;5.20;;;;;;;11.37;88.96;98625.75;24505;1333;3053190;-69
2022/12/11 03:01:41;;;;;;;11.20;5.60;;;;;;;11.23;88.48;98629.96;24521;1337;3052325;-68
2022/12/11 03:04:10;;;;;;;18.30;6.70;;;;;;;11.12;89.03;98626.95;24520;1331;3026655;-71
2022/12/11 03:06:43;;;;;;;17.30;7.50;;;;;;;10.92;89.80;98639.45;24490;1325;3028180;-67
2022/12/11 03:09:12;;;;;;;13.40;6.60;;;;;;;10.79;90.28;98632.05;24532;1332;3051425;-70
2022/12/11 03:11:41;;;;;;;11.70;6.30;;;;;;;11.34;89.21;98623.02;24477;1332;3028402;-68
2022/12/11 03:14:11;;;;;;;21.30;8.80;;;;;;;11.56;86.72;98624.86;24568;1333;3052827;-68
2022/12/11 03:16:55;;;;;;;19.10;10.90;;;;;;;11.51;87.06;98628.38;24560;1333;3024801;-68
2022/12/11 03:19:35;;;;;;;28.90;11.80;;;;;;;11.23;88.16;98630.30;24498;1333;3052836;-65
2022/12/11 03:22:10;;;;;;;27.20;11.30;;;;;;;11.11;88.69;98629.81;24576;1324;3053163;-65
2022/12/11 03:25:21;;;;;;;16.80;8.00;;;;;;;10.80;90.48;98643.95;24507;1329;3052244;-69
2022/12/11 03:27:58;;;;;;;23.00;8.20;;;;;;;11.39;88.38;98622.65;24471;1323;3054147;-66
2022/12/11 03:30:27;;;;;;;19.90;7.60;;;;;;;11.51;87.57;98619.05;24553;1333;3049437;-68
2022/12/11 03:33:03;;;;;;;16.80;8.00;;;;;;;11.60;86.84;98621.38;24537;1332;3026429;-67
2022/12/11 03:35:39;;;;;;;18.50;8.30;;;;;;;11.40;87.15;98619.91;24555;1331;3049609;-71
2022/12/11 03:38:52;;;;;;;20.10;8.90;;;;;;;11.02;89.06;98627.56;24512;1326;3055884;-70
2022/12/11 03:41:22;;;;;;;9.30;5.10;;;;;;;10.96;89.62;98629.60;24515;1326;3052206;-66
2022/12/11 03:43:52;;;;;;;11.50;6.20;;;;;;;11.57;88.41;98619.64;24528;1333;3026425;-66
2022/12/11 03:46:22;;;;;;;13.30;5.70;;;;;;;11.75;85.92;98621.74;24576;1333;3028363;-69
2022/12/11 03:48:51;;;;;;;13.90;6.10;;;;;;;11.60;85.92;98614.70;24554;1332;3027830;-67
2022/12/11 03:51:22;;;;;;;15.40;6.80;;;;;;;11.28;87.29;98625.20;24523;1334;3026170;-67
2022/12/11 03:53:52;;;;;;;14.10;6.00;;;;;;;11.09;88.16;98624.89;24528;1332;3051715;-66
2022/12/11 03:56:21;;;;;;;18.30;6.70;;;;;;;10.81;89.32;98632.30;24540;1333;3027904;-65
2022/12/11 03:58:50;;;;;;;11.10;5.30;;;;;;;10.75;89.91;98632.38;24526;1334;3053520;-68
2022/12/11 04:01:19;;;;;;;16.40;6.30;;;;;;;11.12;89.24;98618.00;24486;1334;3026060;-68
2022/12/11 04:03:48;;;;;;;14.30;6.00;;;;;;;11.34;87.41;98607.21;24513;1332;3052692;-63
2022/12/11 04:06:17;;;;;;;13.50;6.90;;;;;;;11.39;86.81;98602.29;24635;1326;3028094;-66
2022/12/11 04:08:46;;;;;;;15.10;6.70;;;;;;;11.22;87.07;98606.75;24578;1332;3055962;-67
2022/12/11 04:11:34;;;;;;;15.50;7.40;;;;;;;10.87;88.71;98613.11;24574;1332;3028339;-68
2022/12/11 04:16:57;;;;;;;8.40;4.00;;;;;;;10.72;89.67;98612.58;24521;1333;3056360;-69
2022/12/11 04:25:04;;;;;;;18.00;7.30;;;;;;;11.38;86.12;98602.52;24496;1322;3050778;-69
2022/12/11 04:27:49;;;;;;;16.70;7.80;;;;;;;10.91;87.90;98605.25;24546;1332;3025413;-66
2022/12/11 04:30:20;;;;;;;18.60;7.10;;;;;;;10.87;88.84;98605.50;24530;1334;3049012;-67
2022/12/11 04:32:49;;;;;;;12.10;4.60;;;;;;;10.73;89.78;98608.02;24449;1332;3025848;-67
2022/12/11 04:35:20;;;;;;;14.70;5.90;;;;;;;11.18;88.56;98600.94;24491;1332;3028421;-67
2022/12/11 04:37:49;;;;;;;13.10;6.90;;;;;;;11.57;86.59;98593.73;24564;1326;3025689;-69
2022/12/11 04:40:18;;;;;;;15.70;6.90;;;;;;;11.31;86.85;98602.91;24496;1326;3068192;-68
2022/12/11 04:42:47;;;;;;;16.70;7.70;;;;;;;11.12;87.80;98598.06;24498;1323;3028486;-64
2022/12/11 04:45:17;;;;;;;18.10;6.90;;;;;;;10.97;88.47;98591.34;24529;1335;3050814;-66
2022/12/11 04:47:46;;;;;;;13.30;7.20;;;;;;;10.82;89.13;98599.45;24572;1318;3026532;-65
2022/12/11 04:50:15;;;;;;;8.90;4.00;;;;;;;10.58;90.89;98610.36;24489;1330;3051414;-69
2022/12/11 04:52:44;;;;;;;11.10;5.20;;;;;;;11.13;89.57;98594.84;24527;1332;3027237;-65
2022/12/11 04:55:13;;;;;;;15.60;7.00;;;;;;;11.44;87.24;98586.27;24545;1332;3051032;-65
2022/12/11 04:57:42;;;;;;;15.40;6.60;;;;;;;11.25;87.62;98591.47;24513;1332;3026114;-66
2022/12/11 05:00:12;;;;;;;16.20;6.70;;;;;;;11.08;88.13;98597.99;24571;1332;3053146;-65
2022/12/11 05:02:41;;;;;;;17.60;8.00;;;;;;;10.99;88.35;98596.42;24432;1332;3025767;-66
2022/12/11 05:05:10;;;;;;;19.00;7.70;;;;;;;10.68;90.00;98606.62;24554;1331;3026449;-65
2022/12/11 05:07:40;;;;;;;11.00;4.70;;;;;;;10.52;91.14;98611.09;24530;1332;3028443;-67
2022/12/11 05:10:09;;;;;;;12.70;5.50;;;;;;;10.94;90.13;98609.36;24458;1332;3028749;-65
2022/12/11 05:12:38;;;;;;;12.80;6.50;;;;;;;11.23;88.08;98599.87;24542;1332;3026006;-68
2022/12/11 05:15:08;;;;;;;16.20;6.90;;;;;;;11.32;87.24;98608.41;24499;1333;3048934;-66
2022/12/11 05:17:37;;;;;;;15.80;7.90;;;;;;;11.16;87.45;98608.66;24453;1332;3028021;-67
2022/12/11 05:20:06;;;;;;;19.90;7.40;;;;;;;10.98;88.27;98611.21;24592;1316;3026640;-68
2022/12/11 05:22:37;;;;;;;16.30;8.70;;;;;;;10.87;88.69;98618.51;24565;1333;3049434;-68
2022/12/11 05:25:06;;;;;;;9.90;5.10;;;;;;;10.73;89.27;98632.16;24503;1324;3028239;-67
2022/12/11 05:27:36;;;;;;;13.20;6.00;;;;;;;11.14;88.68;98626.94;24502;1332;3026693;-64
2022/12/11 05:30:06;;;;;;;14.10;6.50;;;;;;;11.50;86.21;98618.81;24602;1332;3026395;-66
2022/12/11 05:32:35;;;;;;;17.70;8.00;;;;;;;11.30;86.87;98612.61;24500;1326;3029274;-68
2022/12/11 05:35:04;;;;;;;16.50;8.30;;;;;;;11.10;87.94;98618.52;24547;1331;3026754;-70
2022/12/11 05:37:34;;;;;;;17.60;8.80;;;;;;;10.98;88.39;98616.47;24519;1324;3056428;-69
2022/12/11 05:40:05;;;;;;;16.30;8.70;;;;;;;10.85;88.74;98616.20;24564;1326;3028470;-63
2022/12/11 05:42:34;;;;;;;12.30;5.10;;;;;;;10.79;89.40;98617.13;24518;1334;3049932;-68
2022/12/11 05:45:04;;;;;;;12.80;6.20;;;;;;;11.18;88.33;98611.08;24485;1321;3028105;-68
2022/12/11 05:47:33;;;;;;;16.60;7.70;;;;;;;11.43;86.63;98615.70;24432;1331;3068885;-66
2022/12/11 05:50:02;;;;;;;16.10;8.60;;;;;;;11.51;86.49;98610.64;24550;1325;3028372;-65
2022/12/11 05:52:32;;;;;;;17.70;7.60;;;;;;;11.44;86.32;98603.64;24562;1325;3049701;-68
2022/12/11 05:55:01;;;;;;;15.10;8.50;;;;;;;11.05;87.51;98613.83;24519;1333;3028765;-66
2022/12/11 05:57:29;;;;;;;16.20;8.50;;;;;;;10.87;88.32;98622.15;24612;1325;3051742;-65
2022/12/11 05:59:59;;;;;;;13.30;5.90;;;;;;;10.73;89.39;98627.98;24563;1332;3028762;-65
2022/12/11 06:02:28;;;;;;;12.70;6.20;;;;;;;11.02;88.57;98619.27;24491;1326;3028874;-70
2022/12/11 06:04:57;;;;;;;14.80;8.00;;;;;;;11.51;86.41;98614.02;24593;1332;3027307;-67
2022/12/11 06:07:28;;;;;;;16.60;8.60;;;;;;;11.37;85.96;98614.21;24572;1333;3049224;-68
2022/12/11 06:09:57;;;;;;;17.80;9.00;;;;;;;11.34;86.03;98612.30;24463;1326;3028597;-68
2022/12/11 06:12:27;;;;;;;22.20;10.00;;;;;;;11.13;86.48;98613.41;24502;1338;3052014;-69
2022/12/11 06:14:56;;;;;;;21.10;10.00;;;;;;;10.84;87.94;98615.41;24517;1324;3026453;-69
2022/12/11 06:17:25;;;;;;;14.40;6.10;;;;;;;10.63;89.25;98625.17;24494;1332;3026584;-70
2022/12/11 06:19:54;;;;;;;16.10;7.30;;;;;;;11.13;87.73;98613.54;24539;1322;3051911;-69
2022/12/11 06:22:22;;;;;;;15.00;7.90;;;;;;;11.44;85.68;98612.09;24507;1326;3026496;-67
2022/12/11 06:24:52;;;;;;;17.90;9.20;;;;;;;11.43;85.36;98621.64;24511;1333;3051561;-69
2022/12/11 06:27:21;;;;;;;20.10;9.60;;;;;;;11.08;86.18;98632.85;24633;1331;3025752;-69
2022/12/11 06:29:50;;;;;;;20.70;10.10;;;;;;;10.77;87.70;98635.38;24560;1326;3052301;-66
2022/12/11 06:32:19;;;;;;;21.00;9.80;;;;;;;10.67;88.55;98632.45;24544;1331;3025993;-66
2022/12/11 06:34:48;;;;;;;10.00;5.90;;;;;;;10.63;88.71;98627.14;24566;1331;3054285;-67
2022/12/11 06:37:14;;;;;;;12.40;6.30;;;;;;;11.13;87.38;98620.73;23451;1339;5203092;-71
2022/12/11 06:39:43;;;;;;;16.50;8.30;;;;;;;11.41;85.01;98613.52;24541;1330;3025576;-68
2022/12/11 06:42:12;;;;;;;22.40;8.80;;;;;;;11.39;84.79;98616.84;24529;1333;3026201;-67
2022/12/11 06:44:42;;;;;;;19.90;9.00;;;;;;;11.21;84.97;98625.04;24497;1331;3049069;-66
2022/12/11 06:47:11;;;;;;;19.90;8.80;;;;;;;11.10;85.38;98631.73;24555;1321;3028035;-69
2022/12/11 06:49:40;;;;;;;22.50;9.10;;;;;;;10.66;87.45;98643.03;24472;1332;3069016;-66
2022/12/11 06:52:10;;;;;;;12.50;6.10;;;;;;;10.55;88.42;98644.33;24562;1333;3029037;-65
2022/12/11 06:54:39;;;;;;;14.10;6.70;;;;;;;11.06;86.87;98630.02;24532;1333;3028459;-68
2022/12/11 06:57:09;;;;;;;14.80;8.40;;;;;;;11.29;85.42;98628.30;24510;1332;3025755;-68
2022/12/11 06:59:37;;;;;;;18.50;8.80;;;;;;;11.18;85.28;98628.97;24530;1333;3049339;-67
2022/12/11 07:02:10;;;;;;;18.70;9.60;;;;;;;11.11;85.72;98629.52;24517;1333;3026194;-66
2022/12/11 07:04:40;;;;;;;19.40;9.20;;;;;;;10.93;86.37;98636.50;24479;1329;3069327;-67
2022/12/11 07:07:08;;;;;;;20.40;9.40;;;;;;;10.73;86.99;98632.88;24521;1333;3026122;-65
2022/12/11 07:09:39;;;;;;;10.60;6.60;;;;;;;10.63;87.82;98631.88;24539;1333;3049681;-67
2022/12/11 07:12:08;;;;;;;18.60;8.60;;;;;;;10.98;86.72;98621.75;24500;1332;3029191;-67
2022/12/11 07:14:37;;;;;;;15.90;9.00;;;;;;;11.26;85.54;98616.42;24506;1334;3028778;-69
2022/12/11 07:17:06;;;;;;;17.70;9.30;;;;;;;11.22;85.22;98618.68;24527;1324;3027487;-69
2022/12/11 07:19:35;;;;;;;18.40;9.20;;;;;;;11.11;85.56;98618.67;24546;1325;3067550;-68
2022/12/11 07:22:04;;;;;;;21.80;10.10;;;;;;;10.91;86.35;98624.36;24524;1336;3025428;-68
2022/12/11 07:24:33;;;;;;;17.10;8.40;;;;;;;10.69;87.24;98630.89;24521;1332;3049012;-69
2022/12/11 07:27:03;;;;;;;12.30;6.50;;;;;;;10.57;88.29;98626.48;24508;1333;3025997;-65
2022/12/11 07:29:34;;;;;;;14.50;6.30;;;;;;;10.97;87.18;98619.50;24518;1336;3054247;-69
2022/12/11 07:32:03;;;;;;;14.90;8.10;;;;;;;11.28;85.56;98611.54;24505;1333;3025930;-65
2022/12/11 07:34:33;;;;;;;16.10;8.30;;;;;;;11.18;85.46;98613.37;24532;1338;3051512;-68
2022/12/11 07:37:06;;;;;;;19.00;8.50;;;;;;;11.03;86.29;98611.89;24522;1333;3051990;-71
2022/12/11 07:39:35;;;;;;;20.60;9.50;;;;;;;10.90;86.60;98616.22;24582;1333;3026633;-72
2022/12/11 07:42:05;;;;;;;16.00;9.00;;;;;;;10.68;87.51;98620.45;24523;1325;3051741;-68
2022/12/11 07:44:34;;;;;;;13.00;5.40;;;;;;;10.48;89.37;98621.19;24544;1323;3026188;-68
2022/12/11 07:47:03;;;;;;;20.20;6.70;;;;;;;10.92;88.09;98611.44;24565;1333;3026463;-68
2022/12/11 07:49:34;;;;;;;17.30;7.30;;;;;;;11.36;86.23;98607.58;24496;1333;3051189;-70
2022/12/11 07:52:28;;;;;;;14.90;7.70;;;;;;;11.07;85.99;98608.91;24538;1333;3051844;-69
2022/12/11 07:54:57;;;;;;;14.90;8.50;;;;;;;10.89;86.88;98610.11;24598;1324;3027931;-70
2022/12/11 08:00:24;;;;;;;12.50;5.90;;;;;;;10.59;88.56;98617.08;30702;1329;3013452;-68
2022/12/11 08:03:19;;;;;;;12.60;6.30;;;;;;;10.97;87.88;98609.19;24441;1340;3068940;-67
2022/12/11 08:05:48;;;;;;;15.50;8.10;;;;;;;11.37;85.49;98591.74;24436;1336;3027960;-66
2022/12/11 08:08:18;;;;;;;15.60;7.70;;;;;;;11.08;86.08;98593.78;24498;1327;3048433;-66
2022/12/11 08:10:47;;;;;;;17.70;9.00;;;;;;;10.86;87.01;98588.65;24481;1332;3028003;-70
2022/12/11 08:13:16;;;;;;;15.40;8.30;;;;;;;10.68;87.59;98594.39;23793;1332;4546289;-66
2022/12/11 08:15:45;;;;;;;17.00;7.50;;;;;;;10.53;88.56;98597.00;24564;1333;3026506;-68
2022/12/11 08:18:42;;;;;;;12.30;5.90;;;;;;;10.48;89.23;98590.39;24531;1336;3050062;-69
2022/12/11 08:21:17;;;;;;;15.30;5.60;;;;;;;11.02;87.78;98572.38;24507;1326;3025906;-66
2022/12/11 08:23:46;;;;;;;11.80;7.10;;;;;;;11.50;84.87;98565.82;24532;1326;3049466;-67
2022/12/11 08:26:17;;;;;;;17.70;8.40;;;;;;;11.45;84.28;98561.98;24511;1331;3026292;-67
2022/12/11 08:28:46;;;;;;;17.80;8.70;;;;;;;11.07;85.38;98562.17;24481;1333;3026340;-68
2022/12/11 08:31:15;;;;;;;17.30;8.50;;;;;;;10.84;86.27;98554.23;24528;1332;3026533;-68
2022/12/11 08:33:45;;;;;;;16.10;8.40;;;;;;;10.84;86.90;98554.42;24490;1329;3068723;-68
2022/12/11 08:36:16;;;;;;;10.90;5.20;;;;;;;10.77;87.06;98548.30;24526;1324;3025949;-67
2022/12/11 08:38:46;;;;;;;14.30;6.30;;;;;;;11.19;85.63;98537.89;24545;1333;3048670;-70
2022/12/11 08:41:20;;;;;;;12.50;6.80;;;;;;;11.49;83.88;98527.38;24430;1333;3028658;-68
2022/12/11 08:43:53;;;;;;;16.70;8.10;;;;;;;11.61;83.77;98527.95;24473;1330;3050432;-65
2022/12/11 08:46:24;;;;;;;13.30;7.90;;;;;;;11.45;84.06;98526.77;24517;1333;3025626;-69
2022/12/11 08:48:54;;;;;;;16.10;8.10;;;;;;;11.17;84.71;98524.27;24500;1333;3026031;-71
2022/12/11 08:51:25;;;;;;;14.20;7.40;;;;;;;10.98;85.59;98524.13;24546;1335;3025894;-67
2022/12/11 08:54:19;;;;;;;9.60;5.00;;;;;;;10.94;86.15;98530.38;24554;1335;3056531;-66
2022/12/11 08:56:51;;;;;;;12.20;5.90;;;;;;;11.36;84.49;98523.83;24556;1325;3028147;-70
2022/12/11 08:59:21;;;;;;;16.70;7.80;;;;;;;11.52;82.93;98540.59;24530;1324;3028423;-71
2022/12/11 09:01:50;;;;;;;14.80;8.10;;;;;;;11.42;83.10;98543.33;24556;1331;3054714;-71
2022/12/11 09:04:19;;;;;;;15.20;8.70;;;;;;;11.04;83.87;98541.38;24570;1341;3026476;-68
2022/12/11 09:06:48;;;;;;;19.60;9.30;;;;;;;10.90;84.28;98540.98;24493;1330;3025001;-68
2022/12/11 09:09:18;;;;;;;19.30;8.80;;;;;;;10.68;85.04;98536.74;24508;1339;3056041;-70
2022/12/11 09:11:49;;;;;;;19.70;8.60;;;;;;;10.49;85.63;98534.27;24556;1337;3027739;-73
2022/12/11 09:14:18;;;;;;;13.70;6.60;;;;;;;10.42;86.29;98540.77;24516;1333;3026609;-69
2022/12/11 09:16:47;;;;;;;10.30;6.60;;;;;;;10.81;84.87;98526.81;24566;1334;3056819;-69
2022/12/11 09:19:16;;;;;;;16.10;8.60;;;;;;;11.09;83.18;98524.34;24519;1333;3026180;-70
2022/12/11 09:21:45;;;;;;;19.10;8.70;;;;;;;11.12;82.46;98524.48;24546;1337;3050184;-69
2022/12/11 09:24:15;;;;;;;17.50;8.70;;;;;;;10.95;82.88;98519.13;24530;1340;3025870;-70
2022/12/11 09:26:46;;;;;;;14.70;8.90;;;;;;;10.91;83.39;98522.35;24513;1327;3029359;-67
2022/12/11 09:29:15;;;;;;;17.80;9.50;;;;;;;10.69;83.92;98523.19;24563;1337;3025862;-71
2022/12/11 09:31:45;;;;;;;12.30;6.00;;;;;;;10.57;84.62;98524.64;24488;1333;3026566;-72
2022/12/11 09:34:14;;;;;;;15.30;6.40;;;;;;;11.02;83.59;98514.90;24503;1332;3052445;-70
2022/12/11 09:36:43;;;;;;;14.60;7.30;;;;;;;11.31;81.25;98516.14;24578;1325;3028156;-72
2022/12/11 09:39:13;;;;;;;16.60;8.00;;;;;;;11.33;80.79;98511.23;24538;1333;3055718;-71
2022/12/11 09:42:00;;;;;;;20.20;9.00;;;;;;;11.09;81.64;98503.59;24538;1332;3027422;-67
2022/12/11 09:44:56;;;;;;;18.60;8.50;;;;;;;11.07;81.46;98501.73;24506;1326;3053174;-70
2022/12/11 09:47:39;;;;;;;20.40;8.40;;;;;;;10.94;81.86;98497.99;24564;1333;3026740;-68
2022/12/11 09:50:08;;;;;;;16.80;8.70;;;;;;;10.73;83.06;98492.61;24516;1325;3054294;-69
2022/12/11 09:52:53;;;;;;;14.30;5.70;;;;;;;10.51;84.03;98494.23;24494;1336;3026460;-74
2022/12/11 09:55:23;;;;;;;11.30;6.10;;;;;;;11.12;81.96;98477.09;24490;1329;3069010;-68
2022/12/11 09:58:24;;;;;;;13.30;7.50;;;;;;;11.32;80.70;98474.85;24466;1339;3025822;-71
2022/12/11 10:00:58;;;;;;;17.50;7.60;;;;;;;11.52;79.80;98465.75;24502;1333;3056699;-68
2022/12/11 10:03:52;;;;;;;15.90;8.30;;;;;;;11.27;79.91;98460.89;24497;1327;3053483;-70
2022/12/11 10:06:34;;;;;;;19.30;9.90;;;;;;;10.96;81.43;98458.02;24554;1334;3052384;-67
2022/12/11 10:09:27;;;;;;;18.70;8.80;;;;;;;10.66;82.98;98455.98;24536;1333;3053744;-69
2022/12/11 10:12:24;;;;;;;17.80;8.80;;;;;;;10.55;82.89;98455.04;24500;1336;3051946;-66
2022/12/11 10:14:59;;;;;;;11.50;5.90;;;;;;;10.71;82.79;98455.10;24541;1339;3049579;-68
2022/12/11 10:17:30;;;;;;;17.50;7.10;;;;;;;11.31;80.50;98454.56;24514;1333;3026549;-71
2022/12/11 10:20:35;;;;;;;16.80;7.50;;;;;;;11.68;78.24;98448.13;24506;1334;3049693;-66
2022/12/11 10:23:08;;;;;;;13.80;7.60;;;;;;;11.54;77.97;98450.67;24492;1334;3057149;-68
2022/12/11 10:25:44;;;;;;;15.60;7.40;;;;;;;11.24;78.74;98450.04;24538;1339;3052801;-70
2022/12/11 10:28:15;;;;;;;14.30;7.50;;;;;;;11.06;79.78;98442.21;24521;1342;3054643;-67
2022/12/11 10:30:53;;;;;;;19.50;8.00;;;;;;;10.89;80.20;98452.48;24533;1333;3026522;-71
2022/12/11 10:33:33;;;;;;;17.50;8.20;;;;;;;10.80;80.65;98439.69;24503;1341;3053981;-67
2022/12/11 10:36:02;;;;;;;12.00;5.80;;;;;;;10.69;81.49;98437.52;24531;1324;3048968;-71
2022/12/11 10:38:34;;;;;;;13.50;5.90;;;;;;;11.30;79.41;98427.35;24504;1338;3026531;-68
2022/12/11 10:41:04;;;;;;;13.70;7.00;;;;;;;11.55;77.60;98428.45;24548;1334;3026247;-66
2022/12/11 10:43:35;;;;;;;18.70;7.80;;;;;;;11.37;77.68;98427.98;24537;1332;3027014;-71
2022/12/11 10:46:05;;;;;;;17.70;7.90;;;;;;;11.30;78.10;98427.16;24531;1323;3026439;-70
2022/12/11 10:48:53;;;;;;;15.60;7.80;;;;;;;11.20;78.53;98426.02;24539;1340;3026080;-67
2022/12/11 10:51:42;;;;;;;18.20;7.80;;;;;;;10.94;79.31;98426.80;24494;1331;3051326;-70
2022/12/11 10:54:31;;;;;;;14.90;7.80;;;;;;;10.90;79.79;98423.50;24548;1340;3052358;-69
2022/12/11 10:57:01;;;;;;;12.80;7.40;;;;;;;10.75;80.47;98412.92;24502;1337;3048750;-71
2022/12/11 10:59:59;;;;;;;13.30;5.70;;;;;;;10.86;80.36;98411.70;24525;1330;3069005;-67
2022/12/11 11:02:41;;;;;;;16.10;5.90;;;;;;;11.39;78.40;98400.98;24508;1328;3026356;-65
2022/12/11 11:05:16;;;;;;;;;;;;;;;11.83;76.14;98395.16;24551;1342;3049523;-69
2022/12/11 11:08:14;;;;;;;17.20;7.00;;;;;;;11.80;75.74;98394.52;24507;1332;3069137;-65
2022/12/11 11:10:57;;;;;;;17.90;7.70;;;;;;;11.48;76.24;98396.63;24565;1333;3049743;-70
2022/12/11 11:13:28;;;;;;;15.10;7.20;;;;;;;11.22;77.30;98393.60;24503;1338;3057060;-66
2022/12/11 11:16:23;;;;;;;16.20;7.20;;;;;;;11.04;78.16;98390.28;24517;1327;3052432;-65
2022/12/11 11:18:53;;;;;;;15.50;6.70;;;;;;;10.94;78.83;98389.16;24492;1336;3028712;-69
2022/12/11 11:21:24;;;;;;;16.80;7.50;;;;;;;10.90;79.01;98378.94;24488;1341;3026163;-68
2022/12/11 11:23:54;;;;;;;11.30;4.70;;;;;;;10.85;79.32;98381.48;24535;1332;3026553;-66
2022/12/11 11:26:23;;;;;;;9.60;4.80;;;;;;;11.36;77.62;98372.66;24534;1339;3025863;-70
2022/12/11 11:28:53;;;;;;;12.90;6.10;;;;;;;11.76;75.60;98373.81;24495;1333;3050104;-68
2022/12/11 11:31:33;;;;;;;14.70;7.10;;;;;;;11.84;75.13;98377.05;24482;1328;3026547;-68
2022/12/11 11:34:05;;;;;;;12.90;6.70;;;;;;;11.67;75.42;98373.63;24490;1327;3048868;-65
2022/12/11 11:36:35;;;;;;;15.20;6.90;;;;;;;11.30;76.42;98383.65;24493;1332;3025755;-68
2022/12/11 11:39:34;;;;;;;18.50;7.30;;;;;;;11.30;76.61;98381.24;24509;1333;3028422;-69
2022/12/11 11:42:09;;;;;;;11.70;7.10;;;;;;;11.05;77.44;98377.77;24493;1333;3056673;-65
2022/12/11 11:44:44;;;;;;;14.40;7.60;;;;;;;10.89;78.51;98382.91;24495;1332;3025987;-72
2022/12/11 11:47:18;;;;;;;15.00;7.60;;;;;;;10.75;79.23;98386.13;24510;1340;3052285;-68